Time;durP1;ratioP1;P1;durP2;ratioP2;P2;SDS_P1;SDS_P2;PMS_P1;PMS_P2;Temp;Humidity;BMP_temperature;BMP_pressure;BME280_temperature;BME280_humidity;BME280_pressure;Samples;Min_cycle;Max_cycle;Signal;HPM_P1;HPM_P2
2023/11/29 00:01:16;;;;;;;0.35;0.35;;;;;;;3.61;100.00;98671.00;5027954;28;20045;-75
2023/11/29 00:03:41;;;;;;;3.65;3.40;;;;;;;3.64;100.00;98672.72;5036436;28;20404;-74
2023/11/29 00:06:07;;;;;;;0.70;0.57;;;;;;;4.19;100.00;98779.06;5035709;28;20114;-75
2023/11/29 00:08:32;;;;;;;1.25;1.15;;;;;;;3.76;100.00;98703.84;5041033;28;20069;-74
2023/11/29 00:10:58;;;;;;;0.50;0.50;;;;;;;3.61;100.00;98685.69;5033128;28;20586;-73
2023/11/29 00:13:25;;;;;;;3.70;3.53;;;;;;;4.18;100.00;98777.34;5044010;28;20063;-74
2023/11/29 00:15:50;;;;;;;0.93;0.93;;;;;;;4.02;100.00;98745.31;5039312;28;20052;-73
2023/11/29 00:18:16;;;;;;;0.98;0.98;;;;;;;3.64;100.00;98686.56;5045441;28;20488;-73
2023/11/29 00:20:42;;;;;;;0.30;0.30;;;;;;;3.41;100.00;98676.16;5040937;28;20073;-75
2023/11/29 00:23:07;;;;;;;3.15;3.00;;;;;;;3.28;100.00;98666.66;5037492;28;20402;-74
2023/11/29 00:25:34;;;;;;;1.38;0.80;;;;;;;3.81;100.00;98773.00;5037671;28;20460;-74
2023/11/29 00:28:00;;;;;;;1.00;0.75;;;;;;;4.04;100.00;98808.47;5042458;28;20612;-74
2023/11/29 00:30:28;;;;;;;0.50;0.50;;;;;;;3.36;100.00;98690.84;5044395;28;20055;-74
2023/11/29 00:32:54;;;;;;;3.97;3.70;;;;;;;3.91;100.00;98793.75;5038637;28;20435;-74
2023/11/29 00:35:19;;;;;;;1.42;1.35;;;;;;;3.48;100.00;98697.78;5033953;28;20025;-74
2023/11/29 00:37:46;;;;;;;0.35;0.35;;;;;;;4.00;100.00;98791.16;5038525;28;20799;-76
2023/11/29 00:40:12;;;;;;;2.67;2.47;;;;;;;3.28;100.00;98679.63;5036601;28;20099;-74
2023/11/29 00:42:37;;;;;;;0.38;0.38;;;;;;;3.94;100.00;98780.81;5039464;28;20458;-73
2023/11/29 00:45:03;;;;;;;0.40;0.40;;;;;;;3.90;100.00;98785.13;5067582;28;20068;-74
2023/11/29 00:47:29;;;;;;;21.33;12.50;;;;;;;3.66;100.00;98738.44;5037275;28;20822;-73
2023/11/29 00:49:55;;;;;;;1.73;1.65;;;;;;;3.83;100.00;98787.72;5040382;28;20119;-74
2023/11/29 00:52:20;;;;;;;1.67;1.58;;;;;;;3.28;100.00;98692.59;5034969;28;20060;-75
2023/11/29 00:54:47;;;;;;;1.63;1.52;;;;;;;3.42;100.00;98715.91;5038532;28;20049;-74
2023/11/29 00:57:12;;;;;;;1.08;1.02;;;;;;;3.84;100.00;98798.09;5030768;28;20072;-74
2023/11/29 00:59:38;;;;;;;0.88;0.88;;;;;;;3.43;100.00;98752.22;5035850;28;20080;-74
2023/11/29 01:02:03;;;;;;;1.30;1.00;;;;;;;3.84;100.00;98810.19;5036686;28;20444;-74
2023/11/29 01:04:29;;;;;;;2.08;1.98;;;;;;;3.79;100.00;98812.78;5041177;28;20075;-73
2023/11/29 01:06:54;;;;;;;2.20;2.10;;;;;;;3.67;100.00;98789.41;5049471;28;20158;-75
2023/11/29 01:09:20;;;;;;;9.75;9.07;;;;;;;2.94;100.00;98688.19;5039815;28;20041;-73
2023/11/29 01:11:46;;;;;;;0.50;0.50;;;;;;;3.57;100.00;98786.81;5035494;28;20037;-72
2023/11/29 01:14:12;;;;;;;1.65;1.23;;;;;;;3.47;100.00;98760.88;5044274;28;20072;-73
2023/11/29 01:16:37;;;;;;;1.20;1.10;;;;;;;3.20;100.00;98712.44;5059842;28;20029;-74
2023/11/29 01:19:03;;;;;;;0.68;0.68;;;;;;;3.65;100.00;98791.16;5044126;28;20138;-74
2023/11/29 01:21:28;;;;;;;1.38;1.27;;;;;;;3.79;100.00;98805.88;5043543;28;20049;-75
2023/11/29 01:23:54;;;;;;;0.35;0.35;;;;;;;3.95;100.00;98839.63;5043186;28;20075;-74
2023/11/29 01:26:19;;;;;;;5.50;5.18;;;;;;;3.63;100.00;98818.81;5035299;28;20078;-74
2023/11/29 01:28:45;;;;;;;0.52;0.52;;;;;;;3.73;100.00;98800.69;5044499;28;20036;-77
2023/11/29 01:31:12;;;;;;;1.00;1.00;;;;;;;3.78;100.00;98829.22;5024636;28;20037;-73
2023/11/29 01:33:39;;;;;;;0.47;0.47;;;;;;;3.77;100.00;98836.16;5036921;28;20065;-75
2023/11/29 01:36:09;;;;;;;3.63;3.42;;;;;;;3.31;100.00;98737.50;5030359;28;20484;-72
2023/11/29 01:38:35;;;;;;;0.40;0.40;;;;;;;3.89;100.00;98839.63;5040008;28;20073;-73
2023/11/29 01:41:01;;;;;;;0.40;0.40;;;;;;;3.48;100.00;98819.66;5042877;28;20057;-73
2023/11/29 01:43:26;;;;;;;0.50;0.50;;;;;;;3.46;100.00;98842.09;5039172;28;20198;-73
2023/11/29 01:45:52;;;;;;;23.30;12.75;;;;;;;3.43;100.00;98808.41;5040155;28;20118;-74
2023/11/29 01:48:20;;;;;;;0.30;0.30;;;;;;;3.04;100.00;98758.16;5038694;28;20045;-75
2023/11/29 01:50:46;;;;;;;2.10;2.00;;;;;;;3.80;100.00;98856.03;5040795;28;20480;-74
2023/11/29 01:53:19;;;;;;;1.23;0.82;;;;;;;3.80;100.00;98861.22;5034402;28;20041;-72
2023/11/29 01:55:50;;;;;;;0.47;0.47;;;;;;;3.69;100.00;98856.00;5035340;28;20040;-74
2023/11/29 01:58:17;;;;;;;4.00;3.55;;;;;;;3.67;100.00;98843.88;5040388;28;20049;-74
2023/11/29 02:00:43;;;;;;;0.68;0.68;;;;;;;3.49;100.00;98852.47;5035939;28;20519;-75
2023/11/29 02:03:09;;;;;;;1.08;1.08;;;;;;;2.89;100.00;98735.66;5038902;28;20041;-75
2023/11/29 02:05:35;;;;;;;6.30;6.00;;;;;;;3.06;100.00;98782.34;5057883;28;20071;-75
2023/11/29 02:08:00;;;;;;;7.35;6.75;;;;;;;2.98;100.00;98763.34;5028788;28;20033;-72
2023/11/29 02:10:26;;;;;;;0.40;0.40;;;;;;;3.28;100.00;98806.63;5035771;28;20037;-74
2023/11/29 02:12:52;;;;;;;0.93;0.93;;;;;;;3.61;100.00;98856.88;5036070;28;20045;-73
2023/11/29 02:15:17;;;;;;;1.50;1.40;;;;;;;3.71;100.00;98880.22;5035730;28;20045;-74
2023/11/29 02:17:43;;;;;;;1.15;1.08;;;;;;;3.03;100.00;98761.63;5042120;28;20056;-74
2023/11/29 02:20:14;;;;;;;0.73;0.73;;;;;;;3.76;100.00;98911.34;5033315;28;20110;-77
2023/11/29 02:22:40;;;;;;;0.32;0.32;;;;;;;3.71;100.00;98879.34;5041661;28;20487;-75
2023/11/29 02:25:06;;;;;;;2.00;1.90;;;;;;;3.19;100.00;98822.16;5060023;28;20061;-74
2023/11/29 02:27:32;;;;;;;1.25;1.15;;;;;;;3.08;100.00;98806.56;5042287;28;20067;-76
2023/11/29 02:29:57;;;;;;;0.82;0.82;;;;;;;3.36;100.00;98846.41;5043820;28;20483;-73
2023/11/29 02:32:23;;;;;;;1.10;1.10;;;;;;;3.20;100.00;98826.47;5039145;28;20602;-75
2023/11/29 02:34:48;;;;;;;0.40;0.40;;;;;;;3.40;100.00;98888.78;5042263;28;20126;-75
2023/11/29 02:37:14;;;;;;;0.40;0.40;;;;;;;3.79;100.00;98903.56;5040532;28;20041;-73
2023/11/29 02:39:39;;;;;;;2.20;2.00;;;;;;;3.51;100.00;98876.69;5043332;28;20045;-75
2023/11/29 02:42:05;;;;;;;0.52;0.52;;;;;;;2.94;100.00;98789.22;5041966;28;20061;-75
2023/11/29 02:44:30;;;;;;;3.83;3.60;;;;;;;3.08;100.00;98798.78;5045228;28;20398;-74
2023/11/29 02:46:56;;;;;;;0.75;0.75;;;;;;;3.20;100.00;98834.25;5037523;28;20049;-73
2023/11/29 02:49:24;;;;;;;1.55;1.45;;;;;;;2.87;100.00;98786.59;5038518;28;20042;-73
2023/11/29 02:51:50;;;;;;;0.30;0.30;;;;;;;3.30;100.00;98849.84;5040423;28;20091;-75
2023/11/29 02:54:18;;;;;;;0.82;0.82;;;;;;;3.36;100.00;98896.50;5058916;28;20063;-74
2023/11/29 02:56:44;;;;;;;0.45;0.45;;;;;;;3.04;100.00;98812.56;5041519;28;20064;-75
2023/11/29 02:59:09;;;;;;;0.70;0.70;;;;;;;2.92;100.00;98805.63;5037351;28;20481;-73
2023/11/29 03:01:35;;;;;;;3.92;3.72;;;;;;;3.14;100.00;98812.63;5043082;28;20116;-75
2023/11/29 03:04:01;;;;;;;0.40;0.40;;;;;;;3.74;100.00;98933.81;5038422;28;20125;-73
2023/11/29 03:06:27;;;;;;;0.40;0.40;;;;;;;2.94;100.00;98802.16;5062083;28;20577;-73
2023/11/29 03:08:53;;;;;;;0.90;0.82;;;;;;;2.98;100.00;98823.78;5048983;28;20060;-73
2023/11/29 03:11:19;;;;;;;3.35;3.15;;;;;;;3.71;100.00;98939.88;5039192;28;20151;-74
2023/11/29 03:13:44;;;;;;;0.40;0.40;;;;;;;3.39;100.00;98885.28;5058720;28;20029;-74
2023/11/29 03:16:10;;;;;;;0.40;0.40;;;;;;;3.79;100.00;98943.38;5037591;28;20037;-73
2023/11/29 03:18:35;;;;;;;0.40;0.40;;;;;;;3.18;100.00;98834.22;5063399;28;20079;-73
2023/11/29 03:21:01;;;;;;;0.32;0.32;;;;;;;3.47;100.00;98927.69;5041006;28;20033;-74
2023/11/29 03:23:27;;;;;;;0.50;0.50;;;;;;;3.85;100.00;98950.31;5042500;28;20041;-74
2023/11/29 03:25:53;;;;;;;0.40;0.40;;;;;;;3.71;100.00;98939.00;5035178;28;20028;-73
2023/11/29 03:28:19;;;;;;;0.35;0.35;;;;;;;3.76;100.00;98935.56;5038268;28;20060;-74
2023/11/29 03:30:44;;;;;;;4.15;3.92;;;;;;;3.76;100.00;98934.72;5040527;28;20525;-74
2023/11/29 03:33:11;;;;;;;0.50;0.50;;;;;;;3.92;100.00;98956.38;5042247;28;20037;-74
2023/11/29 03:35:36;;;;;;;0.60;0.60;;;;;;;3.83;100.00;98958.94;5050815;28;20408;-75
2023/11/29 03:38:02;;;;;;;0.45;0.45;;;;;;;3.76;100.00;98934.72;5042546;28;20040;-73
2023/11/29 03:40:27;;;;;;;0.47;0.47;;;;;;;4.01;100.00;98965.06;5039397;28;20025;-75
2023/11/29 03:42:53;;;;;;;2.22;2.13;;;;;;;3.05;100.00;98838.50;5033946;28;20044;-74
2023/11/29 03:45:18;;;;;;;0.40;0.40;;;;;;;3.55;100.00;98912.16;5039559;28;20038;-74
2023/11/29 03:47:44;;;;;;;0.30;0.30;;;;;;;3.15;100.00;98852.34;5040360;28;20073;-73
2023/11/29 03:50:09;;;;;;;0.40;0.40;;;;;;;3.73;100.00;98951.13;5038194;28;20431;-75
2023/11/29 03:52:35;;;;;;;0.38;0.38;;;;;;;3.83;100.00;98972.78;5043636;28;20064;-74
2023/11/29 03:55:01;;;;;;;0.30;0.30;;;;;;;3.47;100.00;98909.53;5038591;28;20061;-74
2023/11/29 03:57:27;;;;;;;0.40;0.40;;;;;;;3.58;100.00;98970.09;5041968;28;20041;-73
2023/11/29 03:59:52;;;;;;;0.40;0.40;;;;;;;3.78;100.00;98982.28;5036024;28;20077;-74
2023/11/29 04:02:18;;;;;;;0.40;0.40;;;;;;;3.72;100.00;98966.69;5042443;28;20025;-75
2023/11/29 04:04:43;;;;;;;0.30;0.30;;;;;;;3.53;100.00;98963.13;5039470;28;20029;-74
2023/11/29 04:07:09;;;;;;;0.38;0.38;;;;;;;2.93;100.00;98862.63;5045812;28;20041;-73
2023/11/29 04:09:34;;;;;;;0.30;0.30;;;;;;;3.42;100.00;98921.63;5043960;28;20132;-75
2023/11/29 04:12:00;;;;;;;0.40;0.40;;;;;;;3.12;100.00;98889.50;5041742;28;20545;-74
2023/11/29 04:14:25;;;;;;;0.63;0.63;;;;;;;3.27;100.00;98903.38;5038835;28;20037;-73
2023/11/29 04:16:51;;;;;;;3.67;1.52;;;;;;;3.85;100.00;99019.50;5046595;28;20107;-74
2023/11/29 04:19:16;;;;;;;1.23;1.17;;;;;;;3.31;100.00;98939.69;5045476;28;20076;-74
2023/11/29 04:21:42;;;;;;;0.90;0.90;;;;;;;3.72;100.00;99031.53;5043859;28;20041;-75
2023/11/29 04:24:07;;;;;;;4.85;4.57;;;;;;;3.07;100.00;98953.38;5038741;28;20559;-72
2023/11/29 04:26:35;;;;;;;0.43;0.43;;;;;;;2.99;100.00;98917.91;5040406;28;20556;-75
2023/11/29 04:29:02;;;;;;;2.53;2.28;;;;;;;3.65;100.00;99022.84;5037071;28;20029;-75
2023/11/29 04:31:29;;;;;;;10.55;9.93;;;;;;;3.20;100.00;98948.28;5044577;28;20472;-74
2023/11/29 04:33:55;;;;;;;0.30;0.30;;;;;;;3.52;100.00;99008.94;5032910;28;20137;-73
2023/11/29 04:36:21;;;;;;;0.35;0.35;;;;;;;3.00;100.00;98958.50;5025312;28;20102;-73
2023/11/29 04:38:48;;;;;;;0.50;0.50;;;;;;;2.96;100.00;98953.31;5041964;28;20934;-74
2023/11/29 04:41:14;;;;;;;0.40;0.40;;;;;;;2.84;100.00;98984.31;5039967;28;20036;-74
2023/11/29 04:43:40;;;;;;;0.35;0.35;;;;;;;3.11;100.00;99022.53;5038089;28;20037;-74
2023/11/29 04:46:05;;;;;;;0.50;0.50;;;;;;;3.23;100.00;99083.06;5039427;28;20049;-73
2023/11/29 04:48:31;;;;;;;0.30;0.30;;;;;;;3.53;100.00;99118.72;5037211;28;20045;-73
2023/11/29 04:50:58;;;;;;;0.50;0.50;;;;;;;2.95;100.00;99018.09;5065280;28;20048;-74
2023/11/29 04:53:24;;;;;;;3.65;3.45;;;;;;;3.34;100.00;99126.34;5038115;28;20126;-74
2023/11/29 04:55:52;;;;;;;0.45;0.45;;;;;;;3.50;100.00;99148.09;5036036;28;20029;-74
2023/11/29 04:58:19;;;;;;;0.30;0.30;;;;;;;3.64;100.00;99149.94;5038303;28;20091;-76
2023/11/29 05:00:46;;;;;;;0.40;0.40;;;;;;;3.69;100.00;99150.84;5024796;28;20445;-76
2023/11/29 05:03:11;;;;;;;10.80;8.68;;;;;;;2.70;100.00;99032.53;5020705;28;20042;-73
2023/11/29 05:05:37;;;;;;;0.45;0.45;;;;;;;3.20;100.00;99111.56;5018544;28;20041;-74
2023/11/29 05:08:03;;;;;;;6.50;5.88;;;;;;;2.74;100.00;99053.31;5023811;28;20033;-73
2023/11/29 05:10:28;;;;;;;0.40;0.40;;;;;;;2.56;100.00;99037.59;5020136;28;20099;-74
2023/11/29 05:12:54;;;;;;;0.40;0.40;;;;;;;3.17;100.00;99096.84;5018068;28;20404;-74
2023/11/29 05:15:20;;;;;;;0.30;0.30;;;;;;;3.19;100.00;99125.38;5019767;28;20452;-73
2023/11/29 05:17:45;;;;;;;1.33;1.30;;;;;;;2.60;100.00;99046.22;5046421;28;20463;-75
2023/11/29 05:20:11;;;;;;;0.30;0.30;;;;;;;2.71;100.00;99049.81;5029956;28;20397;-75
2023/11/29 05:22:36;;;;;;;0.50;0.50;;;;;;;3.27;100.00;99167.78;5019630;28;20041;-77
2023/11/29 05:25:03;;;;;;;0.30;0.30;;;;;;;3.35;100.00;99172.19;5010540;28;20049;-74
2023/11/29 05:27:29;;;;;;;0.32;0.32;;;;;;;2.52;100.00;99028.91;5014409;28;20048;-74
2023/11/29 05:29:54;;;;;;;0.57;0.57;;;;;;;2.20;100.00;98974.25;5018035;28;20057;-75
2023/11/29 05:32:20;;;;;;;1.85;1.77;;;;;;;3.36;100.00;99140.22;5030210;28;20034;-74
2023/11/29 05:34:46;;;;;;;0.52;0.52;;;;;;;2.92;100.00;99083.66;5019588;28;20476;-75
2023/11/29 05:37:11;;;;;;;0.50;0.50;;;;;;;2.83;100.00;99082.72;5017229;28;20073;-73
2023/11/29 05:39:37;;;;;;;0.40;0.40;;;;;;;2.92;100.00;99087.97;5018858;28;20433;-75
2023/11/29 05:42:05;;;;;;;0.40;0.40;;;;;;;2.61;100.00;99061.78;5036441;28;20072;-74
2023/11/29 05:44:34;;;;;;;0.50;0.43;;;;;;;3.19;100.00;99183.28;5023807;28;20041;-75
2023/11/29 05:47:01;;;;;;;1.30;1.02;;;;;;;3.38;100.00;99202.44;5032964;28;20097;-76
2023/11/29 05:49:27;;;;;;;0.30;0.30;;;;;;;3.14;100.00;99187.53;5031647;28;20338;-73
2023/11/29 05:51:52;;;;;;;0.50;0.50;;;;;;;3.07;100.00;99185.75;5016062;28;20049;-74
2023/11/29 05:54:18;;;;;;;0.43;0.43;;;;;;;3.29;100.00;99210.16;5015417;28;20560;-74
2023/11/29 05:56:45;;;;;;;0.30;0.30;;;;;;;2.32;100.00;99089.97;5018308;28;20115;-75
2023/11/29 05:59:11;;;;;;;0.30;0.30;;;;;;;2.70;100.00;99142.16;5022958;28;20083;-76
2023/11/29 06:01:37;;;;;;;1.27;1.27;;;;;;;2.64;100.00;99139.50;5019839;28;20473;-74
2023/11/29 06:04:04;;;;;;;0.30;0.30;;;;;;;3.14;100.00;99235.06;5023175;28;20086;-74
2023/11/29 06:06:30;;;;;;;0.73;0.73;;;;;;;2.73;100.00;99165.50;5062766;28;20352;-75
2023/11/29 06:08:57;;;;;;;0.68;0.68;;;;;;;2.49;100.00;99155.75;5038481;28;20050;-74
2023/11/29 06:11:23;;;;;;;0.40;0.40;;;;;;;2.66;100.00;99170.59;5021798;28;20064;-76
2023/11/29 06:13:50;;;;;;;0.40;0.40;;;;;;;3.22;100.00;99255.88;5027506;28;20481;-75
2023/11/29 06:16:16;;;;;;;0.40;0.40;;;;;;;2.83;100.00;99218.28;5033183;28;20037;-77
2023/11/29 06:18:41;;;;;;;0.43;0.43;;;;;;;2.93;100.00;99221.88;5058269;28;20393;-74
2023/11/29 06:21:07;;;;;;;0.30;0.30;;;;;;;2.68;100.00;99164.59;5040283;28;20096;-75
2023/11/29 06:23:32;;;;;;;0.40;0.40;;;;;;;2.84;100.00;99186.34;5046477;28;20052;-76
2023/11/29 06:25:58;;;;;;;0.55;0.55;;;;;;;3.09;100.00;99194.38;5047487;28;20068;-74
2023/11/29 06:28:24;;;;;;;3.92;0.70;;;;;;;3.63;100.00;99286.56;5046641;28;20041;-75
2023/11/29 06:30:49;;;;;;;0.40;0.40;;;;;;;3.52;100.00;99295.94;5045904;28;20488;-73
2023/11/29 06:33:15;;;;;;;0.47;0.47;;;;;;;3.09;100.00;99228.06;5056593;28;20079;-73
2023/11/29 06:35:41;;;;;;;0.35;0.35;;;;;;;2.88;100.00;99180.38;5056600;28;20117;-77
2023/11/29 06:38:07;;;;;;;0.45;0.45;;;;;;;3.41;100.00;99297.53;5042834;28;20136;-75
2023/11/29 06:40:34;;;;;;;0.40;0.40;;;;;;;3.31;100.00;99289.66;5039779;28;20195;-74
2023/11/29 06:42:59;;;;;;;0.60;0.60;;;;;;;3.14;100.00;99266.16;5042212;28;20029;-73
2023/11/29 06:45:25;;;;;;;1.58;1.48;;;;;;;3.09;100.00;99225.47;5038194;28;20033;-73
2023/11/29 06:47:51;;;;;;;4.50;4.22;;;;;;;2.82;100.00;99177.69;5034904;28;20143;-76
2023/11/29 06:50:16;;;;;;;2.20;2.10;;;;;;;3.19;100.00;99235.09;5037223;28;20087;-76
2023/11/29 06:52:42;;;;;;;0.55;0.55;;;;;;;3.47;100.00;99284.66;5046026;28;20040;-74
2023/11/29 06:55:09;;;;;;;0.30;0.30;;;;;;;2.81;100.00;99198.38;5037102;28;20030;-74
2023/11/29 06:57:35;;;;;;;1.05;1.02;;;;;;;3.53;100.00;99302.84;5042193;28;20056;-75
2023/11/29 07:00:09;;;;;;;0.40;0.40;;;;;;;3.66;100.00;99322.88;5044957;28;20037;-76
2023/11/29 07:02:36;;;;;;;0.35;0.35;;;;;;;3.15;100.00;99236.78;5035557;28;20090;-75
2023/11/29 07:05:01;;;;;;;0.40;0.40;;;;;;;3.64;100.00;99308.16;5045190;28;20033;-75
2023/11/29 07:07:27;;;;;;;0.30;0.30;;;;;;;3.81;100.00;99327.34;5044074;28;20394;-75
2023/11/29 07:09:52;;;;;;;0.30;0.30;;;;;;;3.77;100.00;99335.97;5041269;28;20135;-74
2023/11/29 07:12:18;;;;;;;0.68;0.65;;;;;;;3.19;100.00;99195.38;5026748;28;20041;-75
2023/11/29 07:14:43;;;;;;;0.40;0.40;;;;;;;3.48;100.00;99227.59;5038736;28;20098;-74
2023/11/29 07:17:09;;;;;;;1.95;1.85;;;;;;;3.47;100.00;99248.34;5040109;28;20025;-76
2023/11/29 07:19:35;;;;;;;2.08;1.98;;;;;;;4.20;100.00;99359.72;5034305;28;20120;-74
2023/11/29 07:22:01;;;;;;;0.30;0.30;;;;;;;3.23;100.00;99186.75;5038203;28;20029;-74
2023/11/29 07:24:26;;;;;;;0.50;0.50;;;;;;;3.62;100.00;99251.06;5041312;28;20045;-77
2023/11/29 07:26:52;;;;;;;0.50;0.50;;;;;;;3.63;100.00;99247.66;5037419;28;20033;-76
2023/11/29 07:29:18;;;;;;;0.55;0.55;;;;;;;4.24;100.00;99343.31;5039460;28;20044;-73
2023/11/29 07:31:47;;;;;;;1.20;1.20;;;;;;;3.79;100.00;99256.41;5031058;28;20033;-74
2023/11/29 07:34:13;;;;;;;1.92;1.83;;;;;;;3.46;100.00;99234.50;5036313;28;20056;-76
2023/11/29 07:36:42;;;;;;;0.50;0.50;;;;;;;3.92;100.00;99289.38;5042532;28;20044;-75
2023/11/29 07:39:08;;;;;;;1.13;1.08;;;;;;;4.06;100.00;99299.03;5036304;28;20041;-74
2023/11/29 07:41:33;;;;;;;0.40;0.40;;;;;;;4.38;100.00;99349.47;5042418;28;20044;-75
2023/11/29 07:43:59;;;;;;;0.63;0.63;;;;;;;4.06;100.00;99267.88;5036733;28;20021;-74
2023/11/29 07:46:25;;;;;;;0.35;0.35;;;;;;;4.49;100.00;99364.25;5034693;28;20065;-74
2023/11/29 07:48:50;;;;;;;0.40;0.40;;;;;;;4.60;100.00;99368.69;5039432;28;20104;-74
2023/11/29 07:51:16;;;;;;;0.98;0.98;;;;;;;4.33;100.00;99312.22;5060131;28;20526;-75
2023/11/29 07:53:44;;;;;;;0.30;0.30;;;;;;;4.43;100.00;99341.72;5036801;28;20144;-74
2023/11/29 07:56:10;;;;;;;0.73;0.73;;;;;;;3.95;100.00;99227.13;5069096;28;20063;-74
2023/11/29 07:58:35;;;;;;;2.60;2.42;;;;;;;4.79;100.00;99361.88;5036504;28;20101;-73
2023/11/29 08:01:01;;;;;;;1.25;1.15;;;;;;;4.63;100.00;99319.34;5040001;28;20036;-74
2023/11/29 08:03:26;;;;;;;0.50;0.50;;;;;;;4.78;100.00;99349.75;5038979;28;20837;-75
2023/11/29 08:05:52;;;;;;;0.22;0.22;;;;;;;4.35;100.00;99271.53;5043401;28;20067;-74
2023/11/29 08:08:17;;;;;;;0.40;0.40;;;;;;;4.47;100.00;99267.28;5039233;28;20033;-76
2023/11/29 08:10:43;;;;;;;0.45;0.45;;;;;;;4.41;100.00;99270.72;5039836;28;20025;-74
2023/11/29 08:13:09;;;;;;;0.30;0.30;;;;;;;4.66;100.00;99302.91;5034654;28;20041;-74
2023/11/29 08:15:35;;;;;;;0.50;0.50;;;;;;;5.14;100.00;99408.00;5044951;28;20039;-74
2023/11/29 08:18:01;;;;;;;0.30;0.30;;;;;;;4.51;100.00;99310.59;5063892;28;20068;-75
2023/11/29 08:20:29;;;;;;;0.28;0.28;;;;;;;5.00;100.00;99391.47;5044880;28;20056;-73
2023/11/29 08:22:55;;;;;;;0.50;0.50;;;;;;;4.60;100.00;99300.28;5043673;28;20476;-74
2023/11/29 08:25:23;;;;;;;0.30;0.30;;;;;;;5.44;100.00;99396.03;5060667;28;20123;-74
2023/11/29 08:27:50;;;;;;;0.35;0.35;;;;;;;4.54;100.00;99284.63;5045705;28;20389;-75
2023/11/29 08:30:17;;;;;;;0.30;0.30;;;;;;;5.30;100.00;99388.16;5044132;28;20033;-74
2023/11/29 08:32:44;;;;;;;0.20;0.20;;;;;;;4.76;100.00;99316.81;5045048;28;20064;-75
2023/11/29 08:35:10;;;;;;;0.38;0.38;;;;;;;5.47;100.00;99412.50;5041518;28;20040;-75
2023/11/29 08:37:35;;;;;;;0.30;0.30;;;;;;;5.57;100.00;99426.44;5047396;28;20037;-74
2023/11/29 08:40:03;;;;;;;0.60;0.60;;;;;;;4.67;100.00;99275.19;5041128;28;20072;-74
2023/11/29 08:42:30;;;;;;;0.50;0.40;;;;;;;5.33;100.00;99390.75;5052947;28;20051;-74
2023/11/29 08:44:56;;;;;;;0.40;0.40;;;;;;;5.58;100.00;99409.97;5038883;28;20411;-73
2023/11/29 08:47:21;;;;;;;0.40;0.40;;;;;;;4.93;100.00;99267.53;5039301;28;20068;-74
2023/11/29 08:49:47;;;;;;;0.30;0.30;;;;;;;5.52;100.00;99372.63;5053887;28;20467;-74
2023/11/29 08:52:14;;;;;;;0.70;0.70;;;;;;;4.81;100.00;99263.13;5038703;28;20077;-74
2023/11/29 08:54:40;;;;;;;2.35;2.20;;;;;;;5.37;100.00;99317.09;5041087;28;20122;-75
2023/11/29 08:57:06;;;;;;;0.30;0.30;;;;;;;5.42;100.00;99280.69;5040573;28;20076;-75
2023/11/29 08:59:31;;;;;;;2.58;0.50;;;;;;;5.22;100.00;99247.72;5036892;28;20503;-74
2023/11/29 09:01:57;;;;;;;2.70;1.40;;;;;;;5.33;100.00;99263.31;5039519;28;20056;-75
2023/11/29 09:04:22;;;;;;;0.20;0.20;;;;;;;6.06;100.00;99382.38;5038398;28;20040;-74
2023/11/29 09:06:48;;;;;;;0.40;0.40;;;;;;;6.00;100.00;99366.72;5038835;28;20045;-75
2023/11/29 09:09:16;;;;;;;0.30;0.30;;;;;;;6.03;100.00;99386.69;5028663;28;20085;-76
2023/11/29 09:11:42;;;;;;;0.70;0.50;;;;;;;6.22;100.00;99390.19;5027434;28;20114;-74
2023/11/29 09:14:08;;;;;;;0.60;0.60;;;;;;;6.18;100.00;99399.75;5043703;28;20028;-75
2023/11/29 09:16:33;;;;;;;0.28;0.28;;;;;;;6.02;100.00;99406.66;5043773;28;20142;-74
2023/11/29 09:18:59;;;;;;;0.50;0.50;;;;;;;6.29;100.00;99405.81;5031369;28;20048;-76
2023/11/29 09:21:27;;;;;;;0.35;0.35;;;;;;;5.90;100.00;99300.72;5040310;28;20191;-75
2023/11/29 09:23:53;;;;;;;0.30;0.30;;;;;;;6.09;100.00;99338.09;5042220;28;20033;-73
2023/11/29 09:26:18;;;;;;;6.07;5.72;;;;;;;6.06;100.00;99330.28;5042508;28;20040;-75
2023/11/29 09:28:44;;;;;;;0.30;0.30;;;;;;;6.74;100.00;99445.81;5043333;28;20029;-75
2023/11/29 09:31:12;;;;;;;0.38;0.38;;;;;;;6.40;100.00;99356.31;5041903;28;20059;-75
2023/11/29 09:33:41;;;;;;;0.45;0.45;;;;;;;6.91;100.00;99431.91;5055023;28;20052;-75
2023/11/29 09:36:09;;;;;;;0.28;0.28;;;;;;;6.98;100.00;99438.84;5046217;28;20164;-75
2023/11/29 09:38:34;;;;;;;2.15;2.05;;;;;;;6.42;100.00;99358.94;5039398;28;20037;-73
2023/11/29 09:41:00;;;;;;;0.30;0.30;;;;;;;6.95;100.00;99434.50;5043718;28;20028;-75
2023/11/29 09:43:27;;;;;;;2.42;2.25;;;;;;;6.61;100.00;99341.56;5041969;28;20052;-76
2023/11/29 09:45:54;;;;;;;0.25;0.25;;;;;;;6.61;100.00;99324.16;5040798;28;20041;-74
2023/11/29 09:48:20;;;;;;;0.38;0.38;;;;;;;6.73;100.00;99329.34;5042626;28;20120;-74
2023/11/29 09:50:45;;;;;;;0.30;0.30;;;;;;;7.42;100.00;99450.91;5035860;28;20064;-76
2023/11/29 09:53:12;;;;;;;0.30;0.30;;;;;;;7.03;100.00;99363.19;5030788;28;20129;-77
2023/11/29 09:55:38;;;;;;;0.30;0.30;;;;;;;6.87;100.00;99352.78;5042379;28;20484;-74
2023/11/29 09:58:04;;;;;;;0.52;0.52;;;;;;;7.40;100.00;99430.06;5042513;28;20042;-74
2023/11/29 10:00:33;;;;;;;0.30;0.30;;;;;;;6.76;100.00;99365.84;5039734;28;20144;-73
2023/11/29 10:03:22;;;;;;;0.43;0.43;;;;;;;7.48;100.00;99457.88;5041250;28;20477;-77
2023/11/29 10:05:48;;;;;;;0.20;0.20;;;;;;;7.57;100.00;99450.88;5034657;28;20524;-74
2023/11/29 10:08:19;;;;;;;0.55;0.50;;;;;;;7.07;100.00;99347.53;5043884;28;20499;-75
2023/11/29 10:10:46;;;;;;;0.25;0.25;;;;;;;7.54;100.00;99421.31;5040585;28;20059;-74
2023/11/29 10:13:13;;;;;;;0.30;0.30;;;;;;;7.19;100.00;99337.06;5036882;28;20064;-75
2023/11/29 10:15:45;;;;;;;0.30;0.30;;;;;;;7.47;100.00;99420.47;5030074;28;20575;-74
2023/11/29 10:18:10;;;;;;;0.30;0.30;;;;;;;6.87;100.00;99318.03;5044831;28;20088;-74
2023/11/29 10:20:36;;;;;;;0.30;0.30;;;;;;;7.50;100.00;99432.63;5035643;28;20488;-73
2023/11/29 10:23:02;;;;;;;1.02;1.02;;;;;;;7.45;100.00;99403.94;5028239;28;20552;-73
2023/11/29 10:25:32;;;;;;;0.30;0.30;;;;;;;7.19;100.00;99352.72;5046925;28;20111;-74
2023/11/29 10:27:58;;;;;;;0.30;0.30;;;;;;;7.80;100.00;99448.16;5040932;28;20054;-75
2023/11/29 10:30:24;;;;;;;0.40;0.40;;;;;;;7.39;100.00;99363.06;5044723;28;20045;-76
2023/11/29 10:32:50;;;;;;;0.60;0.60;;;;;;;7.57;100.00;99388.22;5076408;28;20511;-74
2023/11/29 10:35:18;;;;;;;0.20;0.20;;;;;;;7.75;100.00;99373.31;5033011;28;20025;-75
2023/11/29 10:37:50;;;;;;;0.30;0.30;;;;;;;7.60;100.00;99354.25;5042581;28;20065;-74
2023/11/29 10:40:16;;;;;;;0.28;0.28;;;;;;;8.01;100.00;99441.97;5039505;28;20043;-76
2023/11/29 10:42:44;;;;;;;0.40;0.40;;;;;;;7.92;100.00;99410.69;5038271;28;20049;-74
2023/11/29 10:45:17;;;;;;;0.40;0.40;;;;;;;7.65;100.00;99369.91;5034535;28;20045;-74
2023/11/29 10:47:51;;;;;;;0.30;0.30;;;;;;;8.48;100.00;99455.66;5035267;28;20044;-74
2023/11/29 10:50:20;;;;;;;0.30;0.30;;;;;;;7.83;100.00;99368.94;5040695;28;20195;-76
2023/11/29 10:52:46;;;;;;;0.20;0.20;;;;;;;8.23;100.00;99440.09;5039390;28;20040;-75
2023/11/29 10:55:14;;;;;;;0.20;0.20;;;;;;;7.89;100.00;99373.25;5037900;28;20041;-75
2023/11/29 10:57:59;;;;;;;0.40;0.40;;;;;;;8.60;100.00;99478.25;5041627;28;20044;-75
2023/11/29 11:00:29;;;;;;;0.20;0.20;;;;;;;8.08;100.00;99377.50;5044822;28;20094;-75
2023/11/29 11:02:55;;;;;;;0.20;0.20;;;;;;;7.80;100.00;99354.16;5054995;28;20492;-74
2023/11/29 11:05:24;;;;;;;0.35;0.35;;;;;;;8.17;100.00;99393.13;5042826;28;20035;-74
2023/11/29 11:07:51;;;;;;;0.30;0.30;;;;;;;8.21;100.00;99384.34;5041513;28;20057;-76
2023/11/29 11:10:27;;;;;;;0.47;0.47;;;;;;;8.40;100.00;99473.13;5039437;28;20049;-76
2023/11/29 11:12:54;;;;;;;0.30;0.30;;;;;;;8.28;100.00;99442.69;5043739;28;20099;-75
2023/11/29 11:15:23;;;;;;;0.40;0.40;;;;;;;8.29;100.00;99486.25;5040293;28;20037;-75
2023/11/29 11:18:12;;;;;;;2.17;2.08;;;;;;;8.73;100.00;99486.84;5043437;28;20785;-75
2023/11/29 11:20:52;;;;;;;0.40;0.40;;;;;;;8.35;100.00;99428.69;5031188;28;20569;-74
2023/11/29 11:23:22;;;;;;;0.20;0.20;;;;;;;8.17;100.00;99405.28;5044693;28;20026;-76
2023/11/29 11:25:50;;;;;;;0.30;0.30;;;;;;;8.17;100.00;99508.09;5032625;28;20068;-77
2023/11/29 11:28:34;;;;;;;0.88;0.88;;;;;;;7.83;100.00;99449.91;5034348;28;20150;-73
2023/11/29 11:31:13;;;;;;;1.98;1.27;;;;;;;7.93;100.00;99442.88;5038897;28;20045;-75